Time;durP1;ratioP1;P1;durP2;ratioP2;P2;SDS_P1;SDS_P2;PMS_P1;PMS_P2;Temp;Humidity;BMP_temperature;BMP_pressure;BME280_temperature;BME280_humidity;BME280_pressure;Samples;Min_cycle;Max_cycle;Signal;HPM_P1;HPM_P2
2022/07/12 00:01:32;;;;;;;0.57;0.40;;;14.60;93.00;;;;;;5088258;28;20407;-65
2022/07/12 00:03:57;;;;;;;1.80;0.50;;;14.60;93.30;;;;;;5066896;27;20067;-65
2022/07/12 00:06:23;;;;;;;0.88;0.43;;;14.50;93.30;;;;;;5085392;28;20119;-65
2022/07/12 00:08:49;;;;;;;1.15;0.50;;;14.60;93.20;;;;;;5088915;28;20047;-66
2022/07/12 00:11:15;;;;;;;2.55;0.60;;;14.60;93.20;;;;;;5082496;28;20085;-65
2022/07/12 00:13:41;;;;;;;1.08;0.57;;;14.40;93.30;;;;;;5086541;28;20074;-66
2022/07/12 00:16:07;;;;;;;0.43;0.43;;;14.50;93.60;;;;;;5088291;27;20082;-65
2022/07/12 00:18:33;;;;;;;2.15;0.50;;;14.40;93.70;;;;;;5081340;27;20039;-65
2022/07/12 00:20:58;;;;;;;3.60;0.60;;;14.30;93.70;;;;;;5067700;28;20036;-65
2022/07/12 00:23:24;;;;;;;1.30;0.45;;;14.30;94.10;;;;;;5086389;28;20039;-65
2022/07/12 00:25:50;;;;;;;0.65;0.43;;;14.30;94.10;;;;;;5085245;27;20048;-65
2022/07/12 00:28:15;;;;;;;0.55;0.40;;;14.30;94.00;;;;;;5086903;28;20040;-66
2022/07/12 00:30:41;;;;;;;0.80;0.40;;;14.40;93.80;;;;;;5079079;28;20039;-65
2022/07/12 00:33:08;;;;;;;0.40;0.32;;;14.50;93.40;;;;;;5085961;28;20047;-65
2022/07/12 00:35:34;;;;;;;1.55;0.45;;;14.60;93.00;;;;;;5080630;28;20024;-65
2022/07/12 00:37:59;;;;;;;0.52;0.45;;;14.70;93.10;;;;;;5083547;28;20510;-66
2022/07/12 00:40:25;;;;;;;0.90;0.50;;;14.40;93.30;;;;;;5086205;28;20146;-65
2022/07/12 00:42:51;;;;;;;1.92;0.60;;;14.00;94.30;;;;;;5084011;28;20042;-66
2022/07/12 00:45:17;;;;;;;1.95;0.52;;;13.90;94.60;;;;;;5082845;28;20499;-65
2022/07/12 00:47:45;;;;;;;0.75;0.50;;;14.00;94.50;;;;;;5068622;28;20039;-65
2022/07/12 00:50:15;;;;;;;1.08;0.40;;;13.90;94.50;;;;;;5085795;28;20040;-65
2022/07/12 00:52:45;;;;;;;0.95;0.30;;;13.80;94.90;;;;;;5087411;27;20107;-66
2022/07/12 00:55:12;;;;;;;0.25;0.20;;;13.70;95.40;;;;;;5088239;28;20043;-66
2022/07/12 00:57:39;;;;;;;1.70;0.40;;;13.70;95.20;;;;;;5083731;28;20611;-65
2022/07/12 01:00:08;;;;;;;1.35;0.35;;;13.70;95.50;;;;;;5081013;28;20040;-65
2022/07/12 01:02:35;;;;;;;1.67;0.50;;;13.70;95.90;;;;;;5066898;28;20050;-65
2022/07/12 01:05:03;;;;;;;2.28;0.50;;;13.60;95.90;;;;;;5066444;28;20059;-65
2022/07/12 01:07:29;;;;;;;1.30;0.40;;;13.80;95.60;;;;;;5083616;28;20059;-66
2022/07/12 01:09:55;;;;;;;1.50;0.73;;;13.80;95.20;;;;;;5084003;28;20119;-65
2022/07/12 01:12:23;;;;;;;0.38;0.25;;;13.70;95.60;;;;;;5069505;28;20035;-65
2022/07/12 01:14:49;;;;;;;1.58;0.28;;;13.60;95.70;;;;;;5090931;27;20503;-66
2022/07/12 01:17:20;;;;;;;1.20;0.30;;;13.80;95.70;;;;;;5085591;28;20039;-65
2022/07/12 01:19:50;;;;;;;1.65;0.20;;;13.80;95.40;;;;;;5089162;28;20016;-65
2022/07/12 01:22:17;;;;;;;1.15;0.47;;;13.90;95.40;;;;;;5085982;27;20044;-65
2022/07/12 01:24:45;;;;;;;1.75;0.40;;;13.90;95.60;;;;;;5085288;28;20064;-66
2022/07/12 01:27:12;;;;;;;12.10;0.85;;;13.90;95.30;;;;;;5080708;28;20059;-65
2022/07/12 01:29:38;;;;;;;1.58;0.45;;;13.90;95.20;;;;;;5091633;28;20393;-65
2022/07/12 01:34:54;;;;;;;4.22;0.45;;;13.80;95.50;;;;;;5078537;28;20046;-66
2022/07/12 01:37:21;;;;;;;1.65;0.60;;;13.80;95.50;;;;;;5086255;28;20033;-66
2022/07/12 01:39:49;;;;;;;0.43;0.38;;;13.80;95.40;;;;;;5086984;28;20047;-65
2022/07/12 01:42:15;;;;;;;0.70;0.30;;;13.80;95.60;;;;;;5090173;28;20582;-66
2022/07/12 01:44:41;;;;;;;1.50;0.40;;;13.70;95.80;;;;;;5084019;28;20027;-66
2022/07/12 01:47:07;;;;;;;0.30;0.30;;;13.70;95.80;;;;;;5079789;28;20046;-65
2022/07/12 01:49:32;;;;;;;0.95;0.30;;;13.60;95.50;;;;;;5086193;28;20553;-65
2022/07/12 01:51:59;;;;;;;1.63;0.40;;;13.50;96.00;;;;;;5083325;27;20112;-65
2022/07/12 01:54:25;;;;;;;1.45;0.40;;;13.50;96.20;;;;;;5082915;28;20056;-65
2022/07/12 01:56:55;;;;;;;3.63;0.28;;;13.60;96.10;;;;;;5080088;28;20020;-65
2022/07/12 01:59:22;;;;;;;0.65;0.30;;;13.50;96.30;;;;;;5067400;28;20089;-66
2022/07/12 02:01:48;;;;;;;0.55;0.20;;;13.40;96.30;;;;;;5082307;28;20032;-65
2022/07/12 02:04:17;;;;;;;2.95;0.50;;;13.40;96.20;;;;;;5089116;28;20668;-65
2022/07/12 02:06:46;;;;;;;2.35;0.43;;;13.40;96.60;;;;;;5077668;28;20031;-65
2022/07/12 02:09:12;;;;;;;0.20;0.20;;;13.40;96.70;;;;;;5062072;28;20115;-65
2022/07/12 02:11:39;;;;;;;0.43;0.20;;;13.50;96.60;;;;;;5082347;28;20094;-66
2022/07/12 02:14:04;;;;;;;1.55;0.30;;;13.60;96.50;;;;;;5083962;28;20794;-65
2022/07/12 02:16:31;;;;;;;0.82;0.30;;;13.60;96.50;;;;;;5085576;28;20116;-65
2022/07/12 02:18:57;;;;;;;1.92;0.38;;;13.60;96.50;;;;;;5082119;28;20046;-65
2022/07/12 02:21:23;;;;;;;1.85;0.50;;;13.60;96.40;;;;;;5087706;28;20031;-65
2022/07/12 02:23:48;;;;;;;0.47;0.38;;;13.70;96.30;;;;;;5081382;28;20044;-64
2022/07/12 02:26:15;;;;;;;0.40;0.40;;;13.70;96.10;;;;;;5082449;28;20618;-64
2022/07/12 02:28:41;;;;;;;0.65;0.40;;;13.80;96.30;;;;;;5082520;28;20059;-65
2022/07/12 02:31:06;;;;;;;2.72;0.50;;;13.70;96.40;;;;;;5086159;28;20032;-65
2022/07/12 02:33:32;;;;;;;1.13;0.40;;;13.70;96.40;;;;;;5087069;28;20073;-64
2022/07/12 02:35:58;;;;;;;0.55;0.40;;;13.70;96.30;;;;;;5079772;28;20157;-64
2022/07/12 02:38:23;;;;;;;2.28;0.75;;;13.70;96.40;;;;;;5085167;28;20119;-66
2022/07/12 02:40:55;;;;;;;1.20;0.30;;;13.70;96.40;;;;;;5088082;27;20039;-65
2022/07/12 02:43:25;;;;;;;0.47;0.43;;;13.60;96.40;;;;;;5072103;28;20127;-65
2022/07/12 02:45:52;;;;;;;1.33;0.60;;;13.60;96.70;;;;;;5088416;27;20059;-65
2022/07/12 02:48:18;;;;;;;0.45;0.30;;;13.60;96.70;;;;;;5083447;28;20147;-65
2022/07/12 02:50:44;;;;;;;3.00;0.20;;;13.60;96.60;;;;;;5081406;27;20036;-65
2022/07/12 02:53:10;;;;;;;1.45;0.40;;;13.70;96.50;;;;;;5082762;28;20113;-65
2022/07/12 02:55:37;;;;;;;1.17;0.40;;;13.80;96.30;;;;;;5091923;28;20097;-65
2022/07/12 02:58:05;;;;;;;2.30;0.45;;;13.80;96.20;;;;;;5083743;28;20392;-65
2022/07/12 03:00:31;;;;;;;0.70;0.25;;;13.80;96.10;;;;;;5069467;28;20064;-64
2022/07/12 03:02:57;;;;;;;6.38;0.55;;;13.90;96.00;;;;;;5086434;28;20119;-64
2022/07/12 03:05:22;;;;;;;10.30;1.48;;;13.90;96.10;;;;;;5083866;28;20475;-63
2022/07/12 03:07:48;;;;;;;1.15;0.50;;;13.80;96.70;;;;;;5087315;28;20504;-65
2022/07/12 03:10:14;;;;;;;0.98;0.30;;;13.70;96.40;;;;;;5088941;28;20028;-65
2022/07/12 03:12:39;;;;;;;1.35;0.50;;;13.50;96.90;;;;;;5092087;28;20544;-65
2022/07/12 03:15:06;;;;;;;0.65;0.40;;;13.40;97.00;;;;;;5091304;27;20067;-65
2022/07/12 03:17:34;;;;;;;1.65;0.73;;;13.20;97.20;;;;;;5083457;28;20319;-65
2022/07/12 03:20:01;;;;;;;1.00;0.30;;;13.20;97.30;;;;;;5087203;27;20043;-65
2022/07/12 03:22:27;;;;;;;1.23;0.40;;;13.10;97.30;;;;;;5080977;28;20121;-65
2022/07/12 03:24:53;;;;;;;2.53;0.57;;;13.10;97.50;;;;;;5087086;28;20883;-65
2022/07/12 03:27:19;;;;;;;5.30;0.73;;;13.10;97.70;;;;;;5079368;28;20176;-64
2022/07/12 03:29:44;;;;;;;0.47;0.28;;;13.30;97.40;;;;;;5088617;28;20044;-65
2022/07/12 03:32:10;;;;;;;3.40;0.57;;;13.40;97.50;;;;;;5093640;28;20441;-65
2022/07/12 03:34:36;;;;;;;3.40;0.40;;;13.50;97.30;;;;;;5090644;28;20081;-65
2022/07/12 03:37:03;;;;;;;1.40;0.47;;;13.60;97.10;;;;;;5084872;28;20119;-65
2022/07/12 03:39:29;;;;;;;2.10;0.45;;;13.80;96.80;;;;;;5084657;27;20749;-65
2022/07/12 03:41:55;;;;;;;1.00;0.40;;;13.80;96.90;;;;;;5086394;28;20048;-64
2022/07/12 03:44:21;;;;;;;0.60;0.47;;;13.90;96.80;;;;;;5090383;27;20124;-65
2022/07/12 03:46:47;;;;;;;1.25;0.50;;;14.00;96.60;;;;;;5083516;28;20234;-65
2022/07/12 03:49:13;;;;;;;1.83;0.70;;;14.00;96.50;;;;;;5092768;28;20038;-65
2022/07/12 03:51:39;;;;;;;1.10;0.45;;;14.10;96.40;;;;;;5083902;27;20163;-65
2022/07/12 03:54:09;;;;;;;0.80;0.40;;;14.20;96.30;;;;;;5070515;28;20036;-65
2022/07/12 03:59:22;;;;;;;2.63;0.38;;;14.30;95.90;;;;;;5088361;28;20050;-65
2022/07/12 04:01:47;;;;;;;2.35;0.52;;;14.40;95.90;;;;;;5083464;28;20032;-65
2022/07/12 04:04:13;;;;;;;1.58;0.50;;;14.40;95.80;;;;;;5090954;28;20050;-65
2022/07/12 04:06:39;;;;;;;0.52;0.50;;;14.40;95.80;;;;;;5085150;28;20680;-65
2022/07/12 04:09:05;;;;;;;0.85;0.40;;;14.40;95.90;;;;;;5091745;28;20065;-65
2022/07/12 04:11:32;;;;;;;1.00;0.30;;;14.40;95.90;;;;;;5080490;28;21187;-64
2022/07/12 04:13:57;;;;;;;1.52;0.30;;;14.40;95.80;;;;;;5093449;27;20142;-65
2022/07/12 04:16:23;;;;;;;0.35;0.25;;;14.50;95.90;;;;;;5085825;28;20131;-65
2022/07/12 04:18:49;;;;;;;0.77;0.30;;;14.60;95.80;;;;;;5086696;28;20040;-65
2022/07/12 04:21:15;;;;;;;1.27;0.63;;;14.60;95.70;;;;;;5087622;28;20039;-65
2022/07/12 04:23:40;;;;;;;1.02;0.43;;;14.60;95.70;;;;;;5083194;27;20112;-65
2022/07/12 04:26:06;;;;;;;2.55;0.40;;;14.70;95.60;;;;;;5080803;28;20032;-65
2022/07/12 04:28:31;;;;;;;0.73;0.32;;;14.80;95.50;;;;;;5088327;28;20031;-65
2022/07/12 04:30:57;;;;;;;1.05;0.28;;;14.90;95.40;;;;;;5083878;28;20109;-65
2022/07/12 04:33:23;;;;;;;0.70;0.40;;;15.00;95.30;;;;;;5086963;27;20121;-65
2022/07/12 04:35:48;;;;;;;2.40;0.25;;;15.00;95.30;;;;;;5088728;28;20131;-65
2022/07/12 04:38:14;;;;;;;1.00;0.38;;;15.10;95.10;;;;;;5087674;28;20020;-65
2022/07/12 04:40:40;;;;;;;0.82;0.50;;;15.10;95.30;;;;;;5088331;28;20035;-64
2022/07/12 04:43:05;;;;;;;3.85;0.52;;;15.20;95.40;;;;;;5089017;27;20044;-65
2022/07/12 04:45:31;;;;;;;0.73;0.17;;;15.10;95.50;;;;;;5083154;28;20807;-66
2022/07/12 04:47:57;;;;;;;1.35;0.45;;;15.20;95.30;;;;;;5087898;28;20097;-65
2022/07/12 04:50:23;;;;;;;1.98;0.73;;;15.30;95.20;;;;;;5090678;28;20130;-65
2022/07/12 04:52:48;;;;;;;1.23;0.40;;;15.50;95.00;;;;;;5087021;28;20039;-66
2022/07/12 04:55:14;;;;;;;2.05;0.50;;;15.50;94.80;;;;;;5084651;27;21158;-66
2022/07/12 04:57:39;;;;;;;0.38;0.30;;;15.60;95.10;;;;;;5088435;28;20705;-65
2022/07/12 05:00:07;;;;;;;0.50;0.38;;;15.70;95.10;;;;;;5082916;28;20040;-65
2022/07/12 05:02:33;;;;;;;0.65;0.25;;;15.80;94.90;;;;;;5089550;27;20135;-65
2022/07/12 05:04:59;;;;;;;3.20;0.57;;;15.90;94.70;;;;;;5085573;27;20044;-65
2022/07/12 05:07:25;;;;;;;1.60;0.40;;;16.00;94.40;;;;;;5082683;28;20035;-65
2022/07/12 05:09:51;;;;;;;2.10;0.60;;;16.10;94.60;;;;;;5081193;28;20059;-65
2022/07/12 05:12:19;;;;;;;2.85;0.40;;;16.20;94.60;;;;;;5088808;28;20031;-65
2022/07/12 05:14:45;;;;;;;3.45;0.82;;;16.40;94.30;;;;;;5086114;28;20044;-65
2022/07/12 05:17:11;;;;;;;6.50;0.45;;;16.50;94.00;;;;;;5084421;28;20024;-65
2022/07/12 05:19:39;;;;;;;6.32;0.50;;;16.70;93.50;;;;;;5081321;27;20109;-65
2022/07/12 05:22:05;;;;;;;2.88;0.60;;;16.80;92.90;;;;;;5076733;28;20091;-66
2022/07/12 05:24:31;;;;;;;0.90;0.13;;;17.10;93.60;;;;;;5088715;27;20068;-65
2022/07/12 05:26:56;;;;;;;0.30;0.10;;;17.40;92.50;;;;;;5088084;28;20488;-66
2022/07/12 05:29:22;;;;;;;2.63;0.13;;;17.70;91.70;;;;;;5087384;28;20043;-66
2022/07/12 05:31:48;;;;;;;0.45;0.10;;;17.90;90.90;;;;;;5083715;28;20047;-66
2022/07/12 05:34:14;;;;;;;2.50;0.10;;;18.10;91.30;;;;;;5064989;28;20032;-66
2022/07/12 05:36:39;;;;;;;4.00;0.10;;;18.20;90.00;;;;;;5092481;28;20034;-66
2022/07/12 05:39:05;;;;;;;0.90;0.35;;;18.20;89.70;;;;;;5092752;28;20438;-66
2022/07/12 05:41:31;;;;;;;1.42;0.35;;;18.30;88.20;;;;;;5074085;28;20063;-66
2022/07/12 05:43:56;;;;;;;0.25;0.10;;;18.40;88.70;;;;;;5089989;28;20602;-67
2022/07/12 05:46:22;;;;;;;0.95;0.10;;;18.50;87.80;;;;;;5085485;28;20099;-66
2022/07/12 05:48:48;;;;;;;1.52;0.30;;;18.50;88.60;;;;;;5084434;28;20039;-66
2022/07/12 05:53:58;;;;;;;1.95;0.40;;;18.60;87.90;;;;;;5090932;27;20043;-66
2022/07/12 05:56:23;;;;;;;0.55;0.22;;;18.70;86.10;;;;;;5071078;28;20036;-66
2022/07/12 05:58:50;;;;;;;1.35;0.20;;;18.80;85.80;;;;;;5086073;28;20535;-66
2022/07/12 06:01:16;;;;;;;1.92;0.20;;;18.80;84.30;;;;;;5089094;27;20120;-65
2022/07/12 06:03:42;;;;;;;0.43;0.15;;;18.90;84.70;;;;;;5088435;28;20044;-67
2022/07/12 06:06:08;;;;;;;1.42;0.38;;;19.00;84.70;;;;;;5086234;28;20054;-66
2022/07/12 06:08:34;;;;;;;1.00;0.40;;;19.00;83.30;;;;;;5086178;28;20608;-66
2022/07/12 06:10:59;;;;;;;1.77;0.55;;;19.00;84.00;;;;;;5091962;28;20056;-74
2022/07/12 06:13:25;;;;;;;1.77;0.32;;;19.10;82.60;;;;;;5096039;28;20478;-75
2022/07/12 06:15:51;;;;;;;3.45;0.80;;;19.00;82.70;;;;;;5091897;28;20097;-74
2022/07/12 06:18:17;;;;;;;3.33;0.28;;;18.90;83.70;;;;;;5095333;28;20365;-75
2022/07/12 06:20:43;;;;;;;0.43;0.20;;;18.90;84.40;;;;;;5093234;28;20024;-76
2022/07/12 06:23:08;;;;;;;2.40;0.47;;;18.90;83.30;;;;;;5091809;28;20042;-79
2022/07/12 06:25:34;;;;;;;0.20;0.20;;;18.90;85.50;;;;;;5088170;27;20051;-75
2022/07/12 06:28:01;;;;;;;1.58;0.20;;;18.90;83.20;;;;;;5092838;28;20028;-74
2022/07/12 06:30:27;;;;;;;1.08;0.30;;;19.00;84.90;;;;;;5094385;27;20377;-76
2022/07/12 06:32:52;;;;;;;0.47;0.47;;;19.20;84.60;;;;;;5087963;28;20085;-75
2022/07/12 06:35:18;;;;;;;1.00;0.30;;;19.40;85.60;;;;;;5090822;28;20480;-75
2022/07/12 06:37:44;;;;;;;2.17;0.40;;;19.40;82.50;;;;;;5092351;28;20046;-73
2022/07/12 06:40:11;;;;;;;1.75;0.20;;;19.50;83.40;;;;;;5091494;27;20027;-75
2022/07/12 06:42:37;;;;;;;2.50;0.35;;;19.70;82.00;;;;;;5094162;28;20044;-70
2022/07/12 06:45:03;;;;;;;1.75;0.20;;;19.80;82.70;;;;;;5088716;28;20081;-74
2022/07/12 06:47:29;;;;;;;0.30;0.20;;;19.90;81.10;;;;;;5079721;27;20499;-75
2022/07/12 06:49:55;;;;;;;1.48;0.40;;;20.00;81.90;;;;;;5090389;27;20035;-76
2022/07/12 06:52:21;;;;;;;10.55;0.75;;;20.10;81.00;;;;;;5088638;28;20016;-83
2022/07/12 06:54:46;;;;;;;0.35;0.20;;;20.20;81.60;;;;;;5092625;27;20421;-83
2022/07/12 06:57:12;;;;;;;1.38;0.50;;;20.30;81.00;;;;;;5091146;28;20416;-77
2022/07/12 06:59:38;;;;;;;0.82;0.50;;;20.40;80.40;;;;;;5098557;27;20043;-79
2022/07/12 07:02:04;;;;;;;5.53;0.40;;;20.40;80.00;;;;;;5094977;27;20040;-74
2022/07/12 07:04:30;;;;;;;3.95;0.45;;;20.40;78.30;;;;;;5087234;28;20038;-74
2022/07/12 07:06:55;;;;;;;1.20;0.28;;;20.40;80.30;;;;;;5090355;28;20413;-71
2022/07/12 07:09:21;;;;;;;1.08;0.40;;;20.50;80.30;;;;;;5088783;28;20047;-75
2022/07/12 07:11:47;;;;;;;0.40;0.20;;;20.60;77.80;;;;;;5087540;28;20031;-78
2022/07/12 07:14:13;;;;;;;0.82;0.30;;;20.70;78.40;;;;;;5085218;28;20044;-74
2022/07/12 07:16:38;;;;;;;2.13;0.45;;;20.90;79.60;;;;;;5091382;28;20054;-77
2022/07/12 07:19:05;;;;;;;0.85;0.43;;;21.00;79.20;;;;;;5092057;27;20055;-78
2022/07/12 07:21:31;;;;;;;1.25;0.38;;;21.20;75.30;;;;;;5085960;28;20500;-78
2022/07/12 07:23:57;;;;;;;2.75;0.40;;;21.30;75.60;;;;;;5090369;28;20065;-79
2022/07/12 07:26:23;;;;;;;38.05;2.80;;;21.40;75.50;;;;;;5090377;27;20039;-83
2022/07/12 07:31:37;;;;;;;1.02;0.20;;;21.70;74.50;;;;;;5092408;28;20120;-82
2022/07/12 07:34:03;;;;;;;0.88;0.30;;;21.70;74.10;;;;;;5087561;28;20055;-78
2022/07/12 07:36:29;;;;;;;1.42;0.38;;;21.70;74.00;;;;;;5090699;27;20035;-80
2022/07/12 07:38:57;;;;;;;3.05;0.30;;;21.90;74.80;;;;;;5073169;28;20150;-77
2022/07/12 07:41:23;;;;;;;6.57;0.60;;;21.90;74.30;;;;;;5081558;28;20046;-75
2022/07/12 07:43:49;;;;;;;0.75;0.30;;;22.00;73.90;;;;;;5086477;28;20036;-85
2022/07/12 07:46:14;;;;;;;9.88;0.60;;;22.10;72.40;;;;;;5088602;28;20535;-77
2022/07/12 07:48:40;;;;;;;1.92;0.85;;;22.10;72.40;;;;;;5089255;27;20052;-78
2022/07/12 07:51:06;;;;;;;0.63;0.20;;;22.20;70.80;;;;;;5083486;27;20484;-79
2022/07/12 07:53:31;;;;;;;0.30;0.20;;;22.20;70.60;;;;;;5079217;28;20979;-81
2022/07/12 07:55:57;;;;;;;0.85;0.10;;;22.20;71.00;;;;;;5089625;28;20032;-78
2022/07/12 07:58:23;;;;;;;0.80;0.20;;;22.30;68.30;;;;;;5079343;27;20120;-76
2022/07/12 08:00:52;;;;;;;0.88;0.20;;;22.20;67.00;;;;;;5091200;28;20028;-82
2022/07/12 08:03:19;;;;;;;6.15;0.55;;;22.20;66.50;;;;;;5087840;27;20043;-80
2022/07/12 08:05:45;;;;;;;1.50;0.30;;;22.10;65.10;;;;;;5088237;28;20235;-81
2022/07/12 08:08:11;;;;;;;1.95;0.50;;;22.00;66.80;;;;;;5089623;28;21630;-86
2022/07/12 08:10:37;;;;;;;1.88;0.20;;;21.90;67.40;;;;;;5091855;28;20039;-81
2022/07/12 08:13:02;;;;;;;3.58;0.20;;;21.80;69.40;;;;;;5087056;28;20047;-80
2022/07/12 08:15:29;;;;;;;1.98;0.40;;;21.90;69.30;;;;;;5080258;28;20600;-82
2022/07/12 08:17:55;;;;;;;0.63;0.30;;;22.00;69.10;;;;;;5086097;28;20151;-83
2022/07/12 08:20:22;;;;;;;0.43;0.30;;;22.10;69.30;;;;;;5086599;28;20035;-80
2022/07/12 08:22:48;;;;;;;0.98;0.28;;;22.10;68.10;;;;;;5087500;27;20031;-80
2022/07/12 08:25:14;;;;;;;1.27;0.40;;;22.10;65.70;;;;;;5088875;27;20518;-79
2022/07/12 08:27:40;;;;;;;0.68;0.20;;;21.90;69.00;;;;;;5084146;27;20105;-79
2022/07/12 08:30:07;;;;;;;0.93;0.20;;;21.70;68.50;;;;;;5088474;27;20449;-80
2022/07/12 08:32:33;;;;;;;0.30;0.20;;;21.60;70.60;;;;;;5069188;28;20477;-81
2022/07/12 08:34:58;;;;;;;1.00;0.20;;;21.60;70.90;;;;;;5087536;28;20039;-77
2022/07/12 08:37:24;;;;;;;0.20;0.20;;;21.70;70.20;;;;;;5091234;27;20032;-76
2022/07/12 08:39:49;;;;;;;1.63;0.43;;;21.50;70.20;;;;;;5086838;28;20207;-83
2022/07/12 08:42:18;;;;;;;2.00;0.90;;;21.50;73.00;;;;;;5086780;28;20966;-85
2022/07/12 08:44:44;;;;;;;1.10;0.28;;;21.60;71.10;;;;;;5085375;28;20435;-84
2022/07/12 08:47:11;;;;;;;1.90;0.20;;;21.70;71.70;;;;;;5085100;28;20492;-83
2022/07/12 08:49:37;;;;;;;0.73;0.20;;;21.70;72.50;;;;;;5081420;28;20079;-85
2022/07/12 08:52:27;;;;;;;0.50;0.20;;;21.90;72.70;;;;;;5090695;27;20040;-79
2022/07/12 08:54:53;;;;;;;0.68;0.38;;;22.00;70.40;;;;;;5084228;28;20031;-85
2022/07/12 08:57:29;;;;;;;1.13;0.30;;;22.00;69.90;;;;;;5092627;28;20050;-81
2022/07/12 09:00:00;;;;;;;1.40;0.45;;;22.10;71.00;;;;;;5093121;27;20028;-81
2022/07/12 09:02:26;;;;;;;2.30;0.38;;;22.30;65.10;;;;;;5079367;28;20050;-84
2022/07/12 09:05:13;;;;;;;1.15;0.60;;;22.50;66.00;;;;;;5084853;28;20032;-81
2022/07/12 09:07:39;;;;;;;1.38;0.40;;;22.90;65.60;;;;;;5071789;27;24795;-76
2022/07/12 09:10:09;;;;;;;1.33;0.40;;;23.00;63.00;;;;;;5072851;28;20043;-75
2022/07/12 09:12:36;;;;;;;2.00;0.30;;;23.10;59.60;;;;;;5075062;28;20039;-75
2022/07/12 09:15:19;;;;;;;2.05;0.30;;;23.00;59.80;;;;;;5084587;27;20027;-76
2022/07/12 09:18:12;;;;;;;0.22;0.10;;;22.70;58.50;;;;;;5088685;28;20036;-75
2022/07/12 09:20:38;;;;;;;2.47;0.25;;;22.50;57.50;;;;;;5071874;27;20496;-75
2022/07/12 09:23:10;;;;;;;0.40;0.28;;;22.70;59.60;;;;;;5075130;27;20526;-73
2022/07/12 09:25:37;;;;;;;0.28;0.10;;;23.10;60.50;;;;;;5087628;28;20038;-73
2022/07/12 09:28:08;;;;;;;2.15;1.13;;;23.30;59.40;;;;;;5088882;28;20776;-74
2022/07/12 09:30:37;;;;;;;3.50;0.30;;;23.20;59.20;;;;;;5076098;28;20059;-75
2022/07/12 09:36:12;;;;;;;1.33;0.13;;;23.00;60.70;;;;;;5087850;28;20132;-79
2022/07/12 09:38:39;;;;;;;0.88;0.30;;;22.60;61.70;;;;;;5082333;28;20050;-80
2022/07/12 09:41:06;;;;;;;4.68;0.30;;;22.40;63.50;;;;;;5078633;28;20770;-76
2022/07/12 09:43:32;;;;;;;1.83;0.38;;;22.40;63.90;;;;;;5085423;28;20032;-78
2022/07/12 09:45:59;;;;;;;1.63;0.20;;;22.70;61.70;;;;;;5084487;28;20051;-76
2022/07/12 09:48:27;;;;;;;1.88;0.15;;;23.10;59.60;;;;;;5083963;28;23488;-78
2022/07/12 09:50:52;;;;;;;0.47;0.10;;;23.30;59.00;;;;;;5078135;28;20036;-75
2022/07/12 09:53:25;;;;;;;9.50;0.45;;;23.40;55.80;;;;;;5085794;28;20960;-76
2022/07/12 09:55:51;;;;;;;0.68;0.65;;;23.30;56.40;;;;;;5086986;28;20031;-80
2022/07/12 09:58:30;;;;;;;1.23;0.20;;;23.30;56.30;;;;;;5082928;28;20036;-77
2022/07/12 10:00:59;;;;;;;4.55;0.20;;;23.40;57.00;;;;;;5067153;28;20062;-75
2022/07/12 10:03:31;;;;;;;4.20;0.38;;;23.20;54.60;;;;;;5071690;28;20040;-79
2022/07/12 10:05:59;;;;;;;0.75;0.10;;;22.90;53.70;;;;;;5074390;28;20039;-73
2022/07/12 10:08:25;;;;;;;0.20;0.17;;;22.80;55.00;;;;;;5067845;28;20518;-76
2022/07/12 10:10:51;;;;;;;0.10;0.10;;;22.90;55.60;;;;;;5077236;28;20032;-73
2022/07/12 10:13:18;;;;;;;0.00;0.00;;;23.20;53.70;;;;;;5083901;28;20065;-78
2022/07/12 10:15:46;;;;;;;0.28;0.00;;;23.40;53.30;;;;;;5057368;28;20024;-74
2022/07/12 10:18:20;;;;;;;2.75;0.20;;;23.50;54.00;;;;;;5072570;28;20713;-73
2022/07/12 10:20:47;;;;;;;2.97;0.30;;;23.50;54.20;;;;;;5082204;28;20036;-73
2022/07/12 10:23:36;;;;;;;0.90;0.10;;;23.40;54.60;;;;;;5077688;28;20055;-73
2022/07/12 10:26:25;;;;;;;6.05;0.40;;;23.60;55.50;;;;;;5089336;28;20036;-73
2022/07/12 10:29:01;;;;;;;3.08;0.20;;;23.50;55.50;;;;;;5087518;28;20072;-75
2022/07/12 10:31:34;;;;;;;0.70;0.10;;;23.60;54.50;;;;;;5080705;28;20044;-75
2022/07/12 10:34:09;;;;;;;0.90;0.20;;;23.80;54.10;;;;;;5086004;28;20112;-79
2022/07/12 10:36:56;;;;;;;1.83;0.20;;;23.90;53.20;;;;;;5082511;28;20129;-73
2022/07/12 10:39:26;;;;;;;4.20;0.20;;;24.20;55.20;;;;;;5084523;28;20028;-76
2022/07/12 10:42:05;;;;;;;0.30;0.10;;;24.20;51.80;;;;;;5086001;28;20039;-74
2022/07/12 10:44:48;;;;;;;0.20;0.10;;;24.10;51.90;;;;;;5084786;28;20036;-74
2022/07/12 10:47:17;;;;;;;0.17;0.10;;;24.00;52.50;;;;;;5080176;28;20039;-71
2022/07/12 10:49:49;;;;;;;1.20;0.20;;;24.20;50.80;;;;;;5086352;28;20093;-72
2022/07/12 10:52:16;;;;;;;0.63;0.22;;;24.40;49.60;;;;;;5073419;28;20117;-72
2022/07/12 10:55:14;;;;;;;0.00;0.00;;;24.40;49.90;;;;;;5082908;28;20028;-72
2022/07/12 10:57:44;;;;;;;0.25;0.25;;;24.50;51.00;;;;;;5083640;28;21866;-66
2022/07/12 11:00:12;;;;;;;1.00;0.15;;;24.80;50.00;;;;;;5085603;28;20023;-69
2022/07/12 11:02:38;;;;;;;2.60;0.13;;;25.00;49.10;;;;;;5086403;28;20062;-76
2022/07/12 11:05:04;;;;;;;1.98;0.10;;;24.80;50.00;;;;;;5076099;27;20433;-74
2022/07/12 11:07:30;;;;;;;1.20;0.10;;;24.70;48.80;;;;;;5089302;28;20492;-73
2022/07/12 11:09:56;;;;;;;1.52;0.05;;;24.50;47.80;;;;;;5091184;28;20141;-71
2022/07/12 11:12:31;;;;;;;1.55;0.10;;;24.30;48.60;;;;;;5083405;28;20740;-77
2022/07/12 11:15:01;;;;;;;2.00;0.20;;;24.20;49.50;;;;;;5085166;28;20036;-72
2022/07/12 11:17:32;;;;;;;0.10;0.00;;;24.20;48.10;;;;;;5085842;28;20038;-73
2022/07/12 11:20:13;;;;;;;0.85;0.28;;;23.80;49.00;;;;;;5090406;27;20054;-74
2022/07/12 11:22:40;;;;;;;0.05;0.00;;;23.70;50.50;;;;;;5089888;28;20035;-74
2022/07/12 11:25:08;;;;;;;0.10;0.10;;;23.90;49.00;;;;;;5092884;27;20075;-73
2022/07/12 11:27:35;;;;;;;0.10;0.00;;;24.00;49.00;;;;;;5071026;28;20031;-73
2022/07/12 11:30:01;;;;;;;0.30;0.10;;;24.20;52.20;;;;;;5088973;28;20032;-73
2022/07/12 11:32:35;;;;;;;0.47;0.15;;;24.50;49.80;;;;;;5080841;28;20101;-72
2022/07/12 11:35:01;;;;;;;0.13;0.13;;;24.50;49.50;;;;;;5083451;28;20036;-71
2022/07/12 11:37:27;;;;;;;0.10;0.10;;;24.70;48.60;;;;;;5085543;28;20043;-72
2022/07/12 11:39:52;;;;;;;0.70;0.10;;;24.90;48.70;;;;;;5084520;28;20040;-72
2022/07/12 11:42:18;;;;;;;0.25;0.10;;;24.80;48.40;;;;;;5060018;28;20047;-72
2022/07/12 11:44:45;;;;;;;0.10;0.10;;;24.60;48.40;;;;;;5051707;28;20039;-73
2022/07/12 11:47:11;;;;;;;0.85;0.32;;;24.30;47.90;;;;;;5089934;28;20546;-75
2022/07/12 11:49:42;;;;;;;4.57;0.20;;;24.00;47.40;;;;;;5064912;28;20032;-79
2022/07/12 11:52:08;;;;;;;0.63;0.10;;;23.70;49.50;;;;;;5087052;27;20067;-77
2022/07/12 11:54:34;;;;;;;2.65;0.32;;;23.90;49.90;;;;;;5090853;28;20550;-80
2022/07/12 11:57:07;;;;;;;1.10;0.10;;;24.20;48.70;;;;;;5090311;27;20112;-75
2022/07/12 11:59:33;;;;;;;0.25;0.10;;;24.50;49.50;;;;;;5082654;28;20038;-75
2022/07/12 12:02:12;;;;;;;0.70;0.10;;;24.60;49.20;;;;;;5085987;27;20042;-73
2022/07/12 12:04:48;;;;;;;1.10;0.10;;;24.90;47.40;;;;;;5069133;28;20051;-74
2022/07/12 12:07:18;;;;;;;1.65;0.10;;;25.10;47.50;;;;;;5079073;28;20045;-79
2022/07/12 12:10:09;;;;;;;0.38;0.08;;;25.10;46.70;;;;;;5082559;28;20114;-75
2022/07/12 12:12:40;;;;;;;9.53;0.30;;;25.20;44.10;;;;;;5090586;27;20032;-73
2022/07/12 12:15:08;;;;;;;0.38;0.17;;;24.70;44.40;;;;;;5081130;28;20039;-77
2022/07/12 12:17:35;;;;;;;0.40;0.40;;;24.30;45.90;;;;;;5077268;28;20111;-78
2022/07/12 12:20:18;;;;;;;1.00;0.25;;;24.10;47.10;;;;;;5070113;28;20074;-79
2022/07/12 12:22:49;;;;;;;2.03;0.38;;;23.90;47.40;;;;;;5070763;28;20595;-77
2022/07/12 12:25:15;;;;;;;1.42;0.40;;;23.80;47.20;;;;;;5084200;28;20042;-74
2022/07/12 12:27:57;;;;;;;0.10;0.10;;;23.70;48.80;;;;;;5087572;27;20034;-76
2022/07/12 12:30:23;;;;;;;1.30;0.05;;;23.80;49.20;;;;;;5089950;27;20040;-76
2022/07/12 12:32:54;;;;;;;1.00;0.10;;;23.80;49.00;;;;;;5087172;28;20040;-79
2022/07/12 12:35:22;;;;;;;1.27;0.00;;;23.60;49.70;;;;;;5089444;27;20036;-77
2022/07/12 12:37:53;;;;;;;0.45;0.20;;;23.70;49.60;;;;;;5062448;28;20556;-76
2022/07/12 12:40:21;;;;;;;3.38;0.10;;;23.90;49.10;;;;;;5089074;27;20131;-75
2022/07/12 12:42:47;;;;;;;0.00;0.00;;;24.20;49.50;;;;;;5069299;28;20667;-77
2022/07/12 12:45:25;;;;;;;2.10;0.20;;;24.50;48.10;;;;;;5086407;28;20032;-79
2022/07/12 12:47:55;;;;;;;1.60;0.20;;;24.70;47.50;;;;;;5071000;28;20042;-73
2022/07/12 12:50:40;;;;;;;0.73;0.35;;;24.90;46.60;;;;;;5087919;28;20063;-72
2022/07/12 12:53:15;;;;;;;0.20;0.00;;;25.00;46.70;;;;;;5080418;27;20043;-72
2022/07/12 12:55:43;;;;;;;0.30;0.10;;;25.10;47.10;;;;;;5087243;27;20794;-72
2022/07/12 12:58:09;;;;;;;1.88;0.22;;;25.30;47.90;;;;;;5081664;27;20032;-73
2022/07/12 13:00:39;;;;;;;3.20;0.20;;;25.50;46.70;;;;;;5084212;28;20035;-72
2022/07/12 13:03:07;;;;;;;0.57;0.20;;;25.40;46.00;;;;;;5082017;28;20404;-73